hwlogo.jpg (8581 bytes)
Home Your Weather Products Services Weather On Your Site Contact
HW Version Logo
Weather Info
Your Weather (Options)
Canadian Weather
International Weather
Enter your " Place, State", US Zip Code or ICAO:  
Forecast Information Radar Information
Stony Rapids Airport, Canada  Lat: 59.25N, Lon: 105.83W
ICAO Used: CYSF
Current Conditions
Updated: 8:00 AM GMT-7 TUE FEB 20 2018
Sun & Moon Information
Clear
Clear
Temp: -34°C
Humidity: 60%
Wind Speed: VRB2 MPH
Barometer: 1024 mb
Dewpoint: -39°C
Heat Index: -34°C
Wind Chill: -38°C
Civil Twilight: 6:44 AM GMT-7 Moon Phase:
Waxing Crescent Moon
Sunrise: 7:26 AM GMT-7
Sunset: 5:07 PM GMT-7
Civil Twilight: 5:49 PM GMT-7
Forecast for Stony Rapids Airport, Canada:
(Forecast based on TAF for )
0539 AM GMT-7 TUE FEB 20 2018
  
MORNING AFTERNOON EVENING OVERNIGHT
Partly
Cloudy
Partly
Cloudy
Partly
Cloudy
Partly
Cloudy
ZoneCast:
Dated: 0539 AM GMT-7 TUE FEB 20 2018
Morning...Partly cloudy winds variable in direction at 3 mph.

Afternoon...Partly cloudy winds variable in direction at 3 mph.

Evening...Partly cloudy winds variable in direction at 3 mph.

Overnight...Partly cloudy winds variable in direction at 3 mph.

Original Encoded TAF:
Dated: 0539 AM GMT-7 TUE FEB 20 2018
2018/02/20 12:39
TAF CYSF 201138Z 2012/2024 VRB03KT P6SM FEW020 
      RMK FCST BASED ON AUTO OBS. NXT FCST BY 201800Z